sensor_id;sensor_type;location;lat;lon;timestamp;P1;durP1;ratioP1;P2;durP2;ratioP2
19107;SDS011;9686;48.832;9.126;2023-12-20T00:00:38;0.60;;;0.60;;
19107;SDS011;9686;48.832;9.126;2023-12-20T00:03:03;0.50;;;0.50;;
19107;SDS011;9686;48.832;9.126;2023-12-20T00:05:30;0.77;;;0.77;;
19107;SDS011;9686;48.832;9.126;2023-12-20T00:07:57;0.50;;;0.50;;
19107;SDS011;9686;48.832;9.126;2023-12-20T00:10:22;2.00;;;0.83;;
19107;SDS011;9686;48.832;9.126;2023-12-20T00:12:47;1.90;;;0.60;;
19107;SDS011;9686;48.832;9.126;2023-12-20T00:15:13;0.73;;;0.73;;
19107;SDS011;9686;48.832;9.126;2023-12-20T00:17:38;0.67;;;0.67;;
19107;SDS011;9686;48.832;9.126;2023-12-20T00:20:03;0.50;;;0.50;;
19107;SDS011;9686;48.832;9.126;2023-12-20T00:22:30;0.63;;;0.63;;
19107;SDS011;9686;48.832;9.126;2023-12-20T00:24:55;0.57;;;0.57;;
19107;SDS011;9686;48.832;9.126;2023-12-20T00:27:21;0.97;;;0.80;;
19107;SDS011;9686;48.832;9.126;2023-12-20T00:29:46;0.53;;;0.53;;
19107;SDS011;9686;48.832;9.126;2023-12-20T00:32:14;0.97;;;0.90;;
19107;SDS011;9686;48.832;9.126;2023-12-20T00:34:39;0.40;;;0.40;;
19107;SDS011;9686;48.832;9.126;2023-12-20T00:37:05;1.10;;;1.10;;
19107;SDS011;9686;48.832;9.126;2023-12-20T00:39:30;0.67;;;0.67;;
19107;SDS011;9686;48.832;9.126;2023-12-20T00:41:56;1.77;;;0.67;;
19107;SDS011;9686;48.832;9.126;2023-12-20T00:44:21;1.23;;;1.13;;
19107;SDS011;9686;48.832;9.126;2023-12-20T00:46:46;0.67;;;0.53;;
19107;SDS011;9686;48.832;9.126;2023-12-20T00:49:12;1.70;;;1.23;;
19107;SDS011;9686;48.832;9.126;2023-12-20T00:51:37;1.10;;;1.00;;
19107;SDS011;9686;48.832;9.126;2023-12-20T00:54:02;1.07;;;0.90;;
19107;SDS011;9686;48.832;9.126;2023-12-20T00:56:27;1.07;;;0.83;;
19107;SDS011;9686;48.832;9.126;2023-12-20T00:58:53;2.33;;;0.80;;
19107;SDS011;9686;48.832;9.126;2023-12-20T01:01:18;0.67;;;0.67;;
19107;SDS011;9686;48.832;9.126;2023-12-20T01:03:43;1.00;;;1.00;;
19107;SDS011;9686;48.832;9.126;2023-12-20T01:06:09;0.90;;;0.90;;
19107;SDS011;9686;48.832;9.126;2023-12-20T01:08:34;1.50;;;1.20;;
19107;SDS011;9686;48.832;9.126;2023-12-20T01:11:00;0.97;;;0.87;;
19107;SDS011;9686;48.832;9.126;2023-12-20T01:13:25;3.27;;;1.00;;
19107;SDS011;9686;48.832;9.126;2023-12-20T01:15:50;1.70;;;0.80;;
19107;SDS011;9686;48.832;9.126;2023-12-20T01:18:16;0.40;;;0.40;;
19107;SDS011;9686;48.832;9.126;2023-12-20T01:20:41;1.00;;;1.00;;
19107;SDS011;9686;48.832;9.126;2023-12-20T01:23:06;0.80;;;0.80;;
19107;SDS011;9686;48.832;9.126;2023-12-20T01:25:31;1.50;;;1.40;;
19107;SDS011;9686;48.832;9.126;2023-12-20T01:27:57;0.97;;;0.87;;
19107;SDS011;9686;48.832;9.126;2023-12-20T01:30:22;1.20;;;1.10;;
19107;SDS011;9686;48.832;9.126;2023-12-20T01:32:47;1.00;;;0.90;;
19107;SDS011;9686;48.832;9.126;2023-12-20T01:35:12;2.30;;;1.23;;
19107;SDS011;9686;48.832;9.126;2023-12-20T01:37:38;1.03;;;0.93;;
19107;SDS011;9686;48.832;9.126;2023-12-20T01:40:04;1.90;;;0.77;;
19107;SDS011;9686;48.832;9.126;2023-12-20T01:42:29;4.30;;;1.17;;
19107;SDS011;9686;48.832;9.126;2023-12-20T01:44:54;1.80;;;1.63;;
19107;SDS011;9686;48.832;9.126;2023-12-20T01:47:20;1.23;;;1.00;;
19107;SDS011;9686;48.832;9.126;2023-12-20T01:49:46;1.40;;;1.30;;
19107;SDS011;9686;48.832;9.126;2023-12-20T01:52:11;1.63;;;1.00;;
19107;SDS011;9686;48.832;9.126;2023-12-20T01:54:37;1.10;;;1.07;;
19107;SDS011;9686;48.832;9.126;2023-12-20T01:57:04;1.63;;;1.23;;
19107;SDS011;9686;48.832;9.126;2023-12-20T01:59:31;1.50;;;1.03;;
19107;SDS011;9686;48.832;9.126;2023-12-20T02:01:56;1.10;;;0.90;;
19107;SDS011;9686;48.832;9.126;2023-12-20T02:04:21;4.27;;;1.47;;
19107;SDS011;9686;48.832;9.126;2023-12-20T02:06:47;1.07;;;1.00;;
19107;SDS011;9686;48.832;9.126;2023-12-20T02:09:14;1.27;;;1.00;;
19107;SDS011;9686;48.832;9.126;2023-12-20T02:11:40;1.17;;;0.97;;
19107;SDS011;9686;48.832;9.126;2023-12-20T02:14:06;1.87;;;1.30;;
19107;SDS011;9686;48.832;9.126;2023-12-20T02:16:31;1.33;;;0.97;;
19107;SDS011;9686;48.832;9.126;2023-12-20T02:18:56;1.37;;;1.27;;
19107;SDS011;9686;48.832;9.126;2023-12-20T02:21:39;1.40;;;1.27;;
19107;SDS011;9686;48.832;9.126;2023-12-20T02:24:05;1.63;;;0.70;;
19107;SDS011;9686;48.832;9.126;2023-12-20T02:26:31;1.30;;;0.80;;
19107;SDS011;9686;48.832;9.126;2023-12-20T02:28:57;0.83;;;0.83;;
19107;SDS011;9686;48.832;9.126;2023-12-20T02:31:23;0.70;;;0.70;;
19107;SDS011;9686;48.832;9.126;2023-12-20T02:33:48;1.10;;;1.10;;
19107;SDS011;9686;48.832;9.126;2023-12-20T02:36:14;0.93;;;0.93;;
19107;SDS011;9686;48.832;9.126;2023-12-20T02:38:40;1.50;;;1.30;;
19107;SDS011;9686;48.832;9.126;2023-12-20T02:41:05;1.17;;;1.07;;
19107;SDS011;9686;48.832;9.126;2023-12-20T02:43:30;1.77;;;1.00;;
19107;SDS011;9686;48.832;9.126;2023-12-20T02:45:55;0.60;;;0.50;;
19107;SDS011;9686;48.832;9.126;2023-12-20T02:48:21;0.50;;;0.50;;
19107;SDS011;9686;48.832;9.126;2023-12-20T02:50:46;0.30;;;0.30;;
19107;SDS011;9686;48.832;9.126;2023-12-20T02:53:14;0.30;;;0.30;;
19107;SDS011;9686;48.832;9.126;2023-12-20T02:55:39;0.30;;;0.30;;
19107;SDS011;9686;48.832;9.126;2023-12-20T02:58:04;0.20;;;0.20;;
19107;SDS011;9686;48.832;9.126;2023-12-20T03:00:30;0.10;;;0.10;;
19107;SDS011;9686;48.832;9.126;2023-12-20T03:02:55;0.30;;;0.30;;
19107;SDS011;9686;48.832;9.126;2023-12-20T03:05:20;4.97;;;0.30;;
19107;SDS011;9686;48.832;9.126;2023-12-20T03:07:45;0.17;;;0.17;;
19107;SDS011;9686;48.832;9.126;2023-12-20T03:10:11;0.50;;;0.43;;
19107;SDS011;9686;48.832;9.126;2023-12-20T03:12:36;0.30;;;0.30;;
19107;SDS011;9686;48.832;9.126;2023-12-20T03:15:02;0.20;;;0.20;;
19107;SDS011;9686;48.832;9.126;2023-12-20T03:17:27;0.20;;;0.20;;
19107;SDS011;9686;48.832;9.126;2023-12-20T03:19:52;0.37;;;0.37;;
19107;SDS011;9686;48.832;9.126;2023-12-20T03:22:18;0.20;;;0.20;;
19107;SDS011;9686;48.832;9.126;2023-12-20T03:24:43;0.50;;;0.50;;
19107;SDS011;9686;48.832;9.126;2023-12-20T03:27:08;0.20;;;0.20;;
19107;SDS011;9686;48.832;9.126;2023-12-20T03:29:33;0.20;;;0.20;;
19107;SDS011;9686;48.832;9.126;2023-12-20T03:31:59;0.20;;;0.20;;
19107;SDS011;9686;48.832;9.126;2023-12-20T03:34:24;0.40;;;0.40;;
19107;SDS011;9686;48.832;9.126;2023-12-20T03:36:49;1.07;;;0.30;;
19107;SDS011;9686;48.832;9.126;2023-12-20T03:39:15;0.20;;;0.20;;
19107;SDS011;9686;48.832;9.126;2023-12-20T03:41:40;0.20;;;0.20;;
19107;SDS011;9686;48.832;9.126;2023-12-20T03:44:05;0.20;;;0.20;;
19107;SDS011;9686;48.832;9.126;2023-12-20T03:46:30;0.40;;;0.40;;
19107;SDS011;9686;48.832;9.126;2023-12-20T03:48:56;0.47;;;0.30;;
19107;SDS011;9686;48.832;9.126;2023-12-20T03:51:22;0.20;;;0.20;;
19107;SDS011;9686;48.832;9.126;2023-12-20T03:53:47;0.30;;;0.30;;
19107;SDS011;9686;48.832;9.126;2023-12-20T03:56:13;0.23;;;0.20;;
19107;SDS011;9686;48.832;9.126;2023-12-20T03:58:38;0.27;;;0.27;;
19107;SDS011;9686;48.832;9.126;2023-12-20T04:01:03;0.20;;;0.20;;
19107;SDS011;9686;48.832;9.126;2023-12-20T04:03:33;0.20;;;0.20;;
19107;SDS011;9686;48.832;9.126;2023-12-20T04:05:59;5.77;;;0.50;;
19107;SDS011;9686;48.832;9.126;2023-12-20T04:08:24;0.37;;;0.37;;
19107;SDS011;9686;48.832;9.126;2023-12-20T04:10:49;0.30;;;0.30;;
19107;SDS011;9686;48.832;9.126;2023-12-20T04:13:14;0.30;;;0.30;;
19107;SDS011;9686;48.832;9.126;2023-12-20T04:15:40;0.20;;;0.20;;
19107;SDS011;9686;48.832;9.126;2023-12-20T04:18:05;0.20;;;0.20;;
19107;SDS011;9686;48.832;9.126;2023-12-20T04:20:31;0.20;;;0.20;;
19107;SDS011;9686;48.832;9.126;2023-12-20T04:22:56;0.30;;;0.30;;
19107;SDS011;9686;48.832;9.126;2023-12-20T04:25:21;0.20;;;0.20;;
19107;SDS011;9686;48.832;9.126;2023-12-20T04:27:46;0.10;;;0.10;;
19107;SDS011;9686;48.832;9.126;2023-12-20T04:30:12;0.40;;;0.40;;
19107;SDS011;9686;48.832;9.126;2023-12-20T04:32:37;0.20;;;0.20;;
19107;SDS011;9686;48.832;9.126;2023-12-20T04:35:03;0.47;;;0.47;;
19107;SDS011;9686;48.832;9.126;2023-12-20T04:37:28;0.30;;;0.30;;
19107;SDS011;9686;48.832;9.126;2023-12-20T04:39:53;0.20;;;0.20;;
19107;SDS011;9686;48.832;9.126;2023-12-20T04:42:19;0.10;;;0.10;;
19107;SDS011;9686;48.832;9.126;2023-12-20T04:44:45;0.50;;;0.50;;
19107;SDS011;9686;48.832;9.126;2023-12-20T04:47:10;0.50;;;0.50;;
19107;SDS011;9686;48.832;9.126;2023-12-20T04:49:35;3.73;;;0.60;;
19107;SDS011;9686;48.832;9.126;2023-12-20T04:52:00;0.87;;;0.50;;
19107;SDS011;9686;48.832;9.126;2023-12-20T04:54:26;0.20;;;0.20;;
19107;SDS011;9686;48.832;9.126;2023-12-20T04:56:51;0.23;;;0.20;;
19107;SDS011;9686;48.832;9.126;2023-12-20T04:59:16;0.20;;;0.20;;
19107;SDS011;9686;48.832;9.126;2023-12-20T05:01:41;0.30;;;0.30;;
19107;SDS011;9686;48.832;9.126;2023-12-20T05:04:07;0.20;;;0.20;;
19107;SDS011;9686;48.832;9.126;2023-12-20T05:06:32;0.30;;;0.30;;
19107;SDS011;9686;48.832;9.126;2023-12-20T05:08:58;0.20;;;0.20;;
19107;SDS011;9686;48.832;9.126;2023-12-20T05:11:23;0.40;;;0.40;;
19107;SDS011;9686;48.832;9.126;2023-12-20T05:13:48;1.50;;;0.63;;
19107;SDS011;9686;48.832;9.126;2023-12-20T05:16:13;0.20;;;0.20;;
19107;SDS011;9686;48.832;9.126;2023-12-20T05:18:39;0.20;;;0.20;;
19107;SDS011;9686;48.832;9.126;2023-12-20T05:21:05;5.63;;;0.77;;
19107;SDS011;9686;48.832;9.126;2023-12-20T05:23:30;0.10;;;0.10;;
19107;SDS011;9686;48.832;9.126;2023-12-20T05:25:55;0.60;;;0.47;;
19107;SDS011;9686;48.832;9.126;2023-12-20T05:28:21;1.80;;;0.80;;
19107;SDS011;9686;48.832;9.126;2023-12-20T05:30:46;1.27;;;0.70;;
19107;SDS011;9686;48.832;9.126;2023-12-20T05:33:11;0.40;;;0.40;;
19107;SDS011;9686;48.832;9.126;2023-12-20T05:35:37;0.40;;;0.40;;
19107;SDS011;9686;48.832;9.126;2023-12-20T05:38:02;0.30;;;0.30;;
19107;SDS011;9686;48.832;9.126;2023-12-20T05:40:27;0.27;;;0.27;;
19107;SDS011;9686;48.832;9.126;2023-12-20T05:42:53;0.50;;;0.47;;
19107;SDS011;9686;48.832;9.126;2023-12-20T05:45:18;0.20;;;0.20;;
19107;SDS011;9686;48.832;9.126;2023-12-20T05:47:44;0.57;;;0.50;;
19107;SDS011;9686;48.832;9.126;2023-12-20T05:50:09;0.47;;;0.40;;
19107;SDS011;9686;48.832;9.126;2023-12-20T05:52:35;0.20;;;0.20;;
19107;SDS011;9686;48.832;9.126;2023-12-20T05:55:00;0.30;;;0.30;;
19107;SDS011;9686;48.832;9.126;2023-12-20T05:57:28;2.43;;;0.40;;
19107;SDS011;9686;48.832;9.126;2023-12-20T05:59:53;0.80;;;0.60;;
19107;SDS011;9686;48.832;9.126;2023-12-20T06:02:19;0.47;;;0.47;;
19107;SDS011;9686;48.832;9.126;2023-12-20T06:04:44;0.23;;;0.23;;
19107;SDS011;9686;48.832;9.126;2023-12-20T06:07:13;0.43;;;0.43;;
19107;SDS011;9686;48.832;9.126;2023-12-20T06:09:39;0.53;;;0.53;;
19107;SDS011;9686;48.832;9.126;2023-12-20T06:12:04;0.63;;;0.60;;
19107;SDS011;9686;48.832;9.126;2023-12-20T06:14:30;0.40;;;0.40;;
19107;SDS011;9686;48.832;9.126;2023-12-20T06:16:55;0.43;;;0.43;;
19107;SDS011;9686;48.832;9.126;2023-12-20T06:19:22;2.00;;;0.90;;
19107;SDS011;9686;48.832;9.126;2023-12-20T06:21:48;0.50;;;0.50;;
19107;SDS011;9686;48.832;9.126;2023-12-20T06:24:13;0.50;;;0.50;;
19107;SDS011;9686;48.832;9.126;2023-12-20T06:26:38;0.80;;;0.77;;
19107;SDS011;9686;48.832;9.126;2023-12-20T06:29:04;0.40;;;0.40;;
19107;SDS011;9686;48.832;9.126;2023-12-20T06:31:29;0.50;;;0.50;;
19107;SDS011;9686;48.832;9.126;2023-12-20T06:33:54;0.83;;;0.70;;
19107;SDS011;9686;48.832;9.126;2023-12-20T06:36:22;1.73;;;0.60;;
19107;SDS011;9686;48.832;9.126;2023-12-20T06:38:48;0.80;;;0.80;;
19107;SDS011;9686;48.832;9.126;2023-12-20T06:41:14;0.50;;;0.50;;
19107;SDS011;9686;48.832;9.126;2023-12-20T06:43:40;0.70;;;0.70;;
19107;SDS011;9686;48.832;9.126;2023-12-20T06:46:05;2.13;;;1.10;;
19107;SDS011;9686;48.832;9.126;2023-12-20T06:48:31;0.70;;;0.70;;
19107;SDS011;9686;48.832;9.126;2023-12-20T06:50:56;7.83;;;0.90;;
19107;SDS011;9686;48.832;9.126;2023-12-20T06:53:24;1.20;;;1.10;;
19107;SDS011;9686;48.832;9.126;2023-12-20T06:55:49;0.70;;;0.70;;
19107;SDS011;9686;48.832;9.126;2023-12-20T06:58:15;0.67;;;0.67;;
19107;SDS011;9686;48.832;9.126;2023-12-20T07:00:40;0.60;;;0.60;;
19107;SDS011;9686;48.832;9.126;2023-12-20T07:03:05;0.93;;;0.93;;
19107;SDS011;9686;48.832;9.126;2023-12-20T07:05:31;2.10;;;1.67;;
19107;SDS011;9686;48.832;9.126;2023-12-20T07:07:56;1.00;;;1.00;;
19107;SDS011;9686;48.832;9.126;2023-12-20T07:10:21;1.80;;;1.70;;
19107;SDS011;9686;48.832;9.126;2023-12-20T07:12:47;2.30;;;1.70;;
19107;SDS011;9686;48.832;9.126;2023-12-20T07:15:13;1.67;;;1.57;;
19107;SDS011;9686;48.832;9.126;2023-12-20T07:17:39;1.73;;;1.63;;
19107;SDS011;9686;48.832;9.126;2023-12-20T07:20:04;2.77;;;1.67;;
19107;SDS011;9686;48.832;9.126;2023-12-20T07:22:31;1.67;;;1.57;;
19107;SDS011;9686;48.832;9.126;2023-12-20T07:24:57;1.60;;;1.50;;
19107;SDS011;9686;48.832;9.126;2023-12-20T07:27:23;1.80;;;1.33;;
19107;SDS011;9686;48.832;9.126;2023-12-20T07:29:48;1.30;;;1.10;;
19107;SDS011;9686;48.832;9.126;2023-12-20T07:32:14;2.93;;;1.40;;
19107;SDS011;9686;48.832;9.126;2023-12-20T07:34:39;1.53;;;1.43;;
19107;SDS011;9686;48.832;9.126;2023-12-20T07:37:04;1.40;;;1.30;;
19107;SDS011;9686;48.832;9.126;2023-12-20T07:39:29;1.77;;;1.67;;
19107;SDS011;9686;48.832;9.126;2023-12-20T07:41:55;2.90;;;1.97;;
19107;SDS011;9686;48.832;9.126;2023-12-20T07:44:20;7.30;;;1.70;;
19107;SDS011;9686;48.832;9.126;2023-12-20T07:46:46;4.43;;;1.27;;
19107;SDS011;9686;48.832;9.126;2023-12-20T07:49:11;1.70;;;1.50;;
19107;SDS011;9686;48.832;9.126;2023-12-20T07:51:37;2.13;;;1.30;;
19107;SDS011;9686;48.832;9.126;2023-12-20T07:54:02;2.03;;;1.83;;
19107;SDS011;9686;48.832;9.126;2023-12-20T07:56:28;1.83;;;1.47;;
19107;SDS011;9686;48.832;9.126;2023-12-20T07:58:53;2.27;;;1.30;;
19107;SDS011;9686;48.832;9.126;2023-12-20T08:01:19;1.83;;;1.53;;
19107;SDS011;9686;48.832;9.126;2023-12-20T08:03:44;2.20;;;2.10;;
19107;SDS011;9686;48.832;9.126;2023-12-20T08:06:11;2.10;;;1.90;;
19107;SDS011;9686;48.832;9.126;2023-12-20T08:08:36;2.50;;;2.20;;
19107;SDS011;9686;48.832;9.126;2023-12-20T08:11:01;2.90;;;1.70;;
19107;SDS011;9686;48.832;9.126;2023-12-20T08:13:27;2.00;;;1.73;;
19107;SDS011;9686;48.832;9.126;2023-12-20T08:15:53;3.10;;;2.57;;
19107;SDS011;9686;48.832;9.126;2023-12-20T08:18:19;2.00;;;1.77;;
19107;SDS011;9686;48.832;9.126;2023-12-20T08:20:44;1.60;;;1.50;;
19107;SDS011;9686;48.832;9.126;2023-12-20T08:23:09;1.70;;;1.60;;
19107;SDS011;9686;48.832;9.126;2023-12-20T08:25:35;2.30;;;2.03;;
19107;SDS011;9686;48.832;9.126;2023-12-20T08:28:01;2.13;;;1.87;;
19107;SDS011;9686;48.832;9.126;2023-12-20T08:30:27;2.00;;;1.87;;
19107;SDS011;9686;48.832;9.126;2023-12-20T08:32:53;1.43;;;1.33;;
19107;SDS011;9686;48.832;9.126;2023-12-20T08:35:18;2.27;;;1.53;;
19107;SDS011;9686;48.832;9.126;2023-12-20T08:37:44;2.20;;;2.00;;
19107;SDS011;9686;48.832;9.126;2023-12-20T08:40:10;1.87;;;1.77;;
19107;SDS011;9686;48.832;9.126;2023-12-20T08:42:35;2.93;;;1.67;;
19107;SDS011;9686;48.832;9.126;2023-12-20T08:45:01;4.40;;;2.07;;
19107;SDS011;9686;48.832;9.126;2023-12-20T08:47:26;1.67;;;1.57;;
19107;SDS011;9686;48.832;9.126;2023-12-20T08:49:52;3.87;;;2.63;;
19107;SDS011;9686;48.832;9.126;2023-12-20T08:52:21;2.00;;;1.50;;
19107;SDS011;9686;48.832;9.126;2023-12-20T08:54:50;1.60;;;1.50;;
19107;SDS011;9686;48.832;9.126;2023-12-20T08:57:21;1.50;;;1.40;;
19107;SDS011;9686;48.832;9.126;2023-12-20T08:59:48;2.10;;;1.97;;
19107;SDS011;9686;48.832;9.126;2023-12-20T09:02:14;2.20;;;2.00;;
19107;SDS011;9686;48.832;9.126;2023-12-20T09:04:40;1.63;;;1.50;;
19107;SDS011;9686;48.832;9.126;2023-12-20T09:07:05;1.33;;;1.23;;
19107;SDS011;9686;48.832;9.126;2023-12-20T09:09:32;2.77;;;1.93;;
19107;SDS011;9686;48.832;9.126;2023-12-20T09:11:58;1.30;;;1.10;;
19107;SDS011;9686;48.832;9.126;2023-12-20T09:14:23;3.90;;;2.17;;
19107;SDS011;9686;48.832;9.126;2023-12-20T09:16:49;10.10;;;1.60;;
19107;SDS011;9686;48.832;9.126;2023-12-20T09:19:16;2.83;;;1.60;;
19107;SDS011;9686;48.832;9.126;2023-12-20T09:21:44;2.27;;;1.50;;
19107;SDS011;9686;48.832;9.126;2023-12-20T09:24:09;2.60;;;1.87;;
19107;SDS011;9686;48.832;9.126;2023-12-20T09:26:34;1.20;;;1.10;;
19107;SDS011;9686;48.832;9.126;2023-12-20T09:29:00;4.23;;;0.97;;
19107;SDS011;9686;48.832;9.126;2023-12-20T09:31:25;1.47;;;1.10;;
19107;SDS011;9686;48.832;9.126;2023-12-20T09:33:50;1.03;;;1.03;;
19107;SDS011;9686;48.832;9.126;2023-12-20T09:36:16;1.23;;;1.10;;
19107;SDS011;9686;48.832;9.126;2023-12-20T09:38:41;1.67;;;1.17;;
19107;SDS011;9686;48.832;9.126;2023-12-20T09:41:07;0.80;;;0.80;;
19107;SDS011;9686;48.832;9.126;2023-12-20T09:43:32;1.70;;;1.30;;
19107;SDS011;9686;48.832;9.126;2023-12-20T09:46:02;3.27;;;1.03;;
19107;SDS011;9686;48.832;9.126;2023-12-20T09:48:30;1.30;;;0.77;;
19107;SDS011;9686;48.832;9.126;2023-12-20T09:50:56;1.23;;;1.00;;
19107;SDS011;9686;48.832;9.126;2023-12-20T09:53:21;6.03;;;1.30;;
19107;SDS011;9686;48.832;9.126;2023-12-20T09:55:54;2.10;;;1.23;;
19107;SDS011;9686;48.832;9.126;2023-12-20T09:58:23;1.50;;;1.10;;
19107;SDS011;9686;48.832;9.126;2023-12-20T10:00:49;2.30;;;1.07;;
19107;SDS011;9686;48.832;9.126;2023-12-20T10:03:15;1.30;;;1.07;;
19107;SDS011;9686;48.832;9.126;2023-12-20T10:05:41;1.27;;;0.97;;
19107;SDS011;9686;48.832;9.126;2023-12-20T10:08:09;4.77;;;1.83;;
19107;SDS011;9686;48.832;9.126;2023-12-20T10:10:34;0.60;;;0.60;;
19107;SDS011;9686;48.832;9.126;2023-12-20T10:13:06;1.40;;;1.00;;
19107;SDS011;9686;48.832;9.126;2023-12-20T10:15:36;14.23;;;1.00;;
19107;SDS011;9686;48.832;9.126;2023-12-20T10:18:02;3.00;;;0.87;;
19107;SDS011;9686;48.832;9.126;2023-12-20T10:20:28;0.60;;;0.60;;
19107;SDS011;9686;48.832;9.126;2023-12-20T10:22:54;0.77;;;0.77;;
19107;SDS011;9686;48.832;9.126;2023-12-20T10:25:24;0.87;;;0.87;;
19107;SDS011;9686;48.832;9.126;2023-12-20T10:27:50;1.07;;;0.97;;
19107;SDS011;9686;48.832;9.126;2023-12-20T10:30:33;4.43;;;1.10;;
19107;SDS011;9686;48.832;9.126;2023-12-20T10:32:58;1.87;;;1.03;;
19107;SDS011;9686;48.832;9.126;2023-12-20T10:35:23;0.67;;;0.67;;
19107;SDS011;9686;48.832;9.126;2023-12-20T10:37:49;1.47;;;1.20;;
19107;SDS011;9686;48.832;9.126;2023-12-20T10:40:15;0.97;;;0.80;;
19107;SDS011;9686;48.832;9.126;2023-12-20T10:42:42;10.77;;;1.27;;
19107;SDS011;9686;48.832;9.126;2023-12-20T10:45:07;0.57;;;0.57;;
19107;SDS011;9686;48.832;9.126;2023-12-20T10:47:33;0.60;;;0.57;;
19107;SDS011;9686;48.832;9.126;2023-12-20T10:50:01;2.67;;;1.17;;
19107;SDS011;9686;48.832;9.126;2023-12-20T10:52:27;6.20;;;1.13;;
19107;SDS011;9686;48.832;9.126;2023-12-20T10:54:54;2.10;;;1.23;;
19107;SDS011;9686;48.832;9.126;2023-12-20T10:57:19;3.00;;;1.33;;
19107;SDS011;9686;48.832;9.126;2023-12-20T10:59:46;0.60;;;0.60;;
19107;SDS011;9686;48.832;9.126;2023-12-20T11:02:18;0.80;;;0.80;;
19107;SDS011;9686;48.832;9.126;2023-12-20T11:04:55;0.73;;;0.73;;
19107;SDS011;9686;48.832;9.126;2023-12-20T11:07:33;0.67;;;0.67;;
19107;SDS011;9686;48.832;9.126;2023-12-20T11:12:47;1.00;;;0.87;;
19107;SDS011;9686;48.832;9.126;2023-12-20T11:15:17;0.77;;;0.77;;
19107;SDS011;9686;48.832;9.126;2023-12-20T11:17:44;2.10;;;1.50;;
19107;SDS011;9686;48.832;9.126;2023-12-20T11:20:11;2.53;;;0.83;;
19107;SDS011;9686;48.832;9.126;2023-12-20T11:22:37;5.97;;;1.33;;
19107;SDS011;9686;48.832;9.126;2023-12-20T11:25:07;0.83;;;0.73;;
19107;SDS011;9686;48.832;9.126;2023-12-20T11:27:35;1.67;;;1.00;;
19107;SDS011;9686;48.832;9.126;2023-12-20T11:30:08;4.20;;;1.53;;
19107;SDS011;9686;48.832;9.126;2023-12-20T11:32:35;4.43;;;1.17;;
19107;SDS011;9686;48.832;9.126;2023-12-20T11:37:35;7.37;;;1.20;;
19107;SDS011;9686;48.832;9.126;2023-12-20T11:40:02;1.43;;;1.10;;
19107;SDS011;9686;48.832;9.126;2023-12-20T11:42:33;5.97;;;1.03;;
19107;SDS011;9686;48.832;9.126;2023-12-20T11:45:02;0.57;;;0.57;;
19107;SDS011;9686;48.832;9.126;2023-12-20T11:47:28;2.50;;;1.00;;
19107;SDS011;9686;48.832;9.126;2023-12-20T11:49:55;1.23;;;1.03;;
19107;SDS011;9686;48.832;9.126;2023-12-20T11:52:21;1.13;;;0.90;;
19107;SDS011;9686;48.832;9.126;2023-12-20T11:54:46;1.07;;;1.07;;
19107;SDS011;9686;48.832;9.126;2023-12-20T11:57:12;1.13;;;1.03;;
19107;SDS011;9686;48.832;9.126;2023-12-20T11:59:38;4.77;;;1.40;;
19107;SDS011;9686;48.832;9.126;2023-12-20T12:02:03;1.47;;;1.20;;
19107;SDS011;9686;48.832;9.126;2023-12-20T12:04:29;2.27;;;1.57;;
19107;SDS011;9686;48.832;9.126;2023-12-20T12:06:54;2.07;;;1.33;;
19107;SDS011;9686;48.832;9.126;2023-12-20T12:09:19;2.83;;;0.97;;
19107;SDS011;9686;48.832;9.126;2023-12-20T12:11:45;4.77;;;1.03;;
19107;SDS011;9686;48.832;9.126;2023-12-20T12:14:10;1.43;;;1.20;;
19107;SDS011;9686;48.832;9.126;2023-12-20T12:16:36;0.50;;;0.50;;
19107;SDS011;9686;48.832;9.126;2023-12-20T12:19:01;1.00;;;0.90;;
19107;SDS011;9686;48.832;9.126;2023-12-20T12:21:26;1.80;;;1.13;;
19107;SDS011;9686;48.832;9.126;2023-12-20T12:23:52;1.90;;;1.40;;
19107;SDS011;9686;48.832;9.126;2023-12-20T12:26:18;1.60;;;1.20;;
19107;SDS011;9686;48.832;9.126;2023-12-20T12:28:43;1.40;;;1.17;;
19107;SDS011;9686;48.832;9.126;2023-12-20T12:31:12;0.97;;;0.70;;
19107;SDS011;9686;48.832;9.126;2023-12-20T12:33:40;1.23;;;1.10;;
19107;SDS011;9686;48.832;9.126;2023-12-20T12:36:06;1.07;;;1.00;;
19107;SDS011;9686;48.832;9.126;2023-12-20T12:38:32;1.33;;;1.00;;
19107;SDS011;9686;48.832;9.126;2023-12-20T12:40:59;0.63;;;0.63;;
19107;SDS011;9686;48.832;9.126;2023-12-20T12:43:25;0.70;;;0.70;;
19107;SDS011;9686;48.832;9.126;2023-12-20T12:45:50;2.80;;;1.10;;
19107;SDS011;9686;48.832;9.126;2023-12-20T12:48:16;3.53;;;1.30;;
19107;SDS011;9686;48.832;9.126;2023-12-20T12:50:41;1.83;;;1.07;;
19107;SDS011;9686;48.832;9.126;2023-12-20T12:53:06;0.67;;;0.67;;
19107;SDS011;9686;48.832;9.126;2023-12-20T12:55:32;1.87;;;1.03;;
19107;SDS011;9686;48.832;9.126;2023-12-20T12:57:58;0.40;;;0.40;;
19107;SDS011;9686;48.832;9.126;2023-12-20T13:00:23;2.00;;;1.30;;
19107;SDS011;9686;48.832;9.126;2023-12-20T13:02:49;2.10;;;0.90;;
19107;SDS011;9686;48.832;9.126;2023-12-20T13:05:15;0.63;;;0.40;;
19107;SDS011;9686;48.832;9.126;2023-12-20T13:07:40;0.63;;;0.63;;
19107;SDS011;9686;48.832;9.126;2023-12-20T13:10:05;3.70;;;1.03;;
19107;SDS011;9686;48.832;9.126;2023-12-20T13:12:31;19.67;;;1.23;;
19107;SDS011;9686;48.832;9.126;2023-12-20T13:14:57;6.17;;;1.03;;
19107;SDS011;9686;48.832;9.126;2023-12-20T13:17:23;3.30;;;0.83;;
19107;SDS011;9686;48.832;9.126;2023-12-20T13:19:48;0.67;;;0.67;;
19107;SDS011;9686;48.832;9.126;2023-12-20T13:22:14;1.87;;;0.87;;
19107;SDS011;9686;48.832;9.126;2023-12-20T13:24:40;1.53;;;0.90;;
19107;SDS011;9686;48.832;9.126;2023-12-20T13:27:05;0.87;;;0.87;;
19107;SDS011;9686;48.832;9.126;2023-12-20T13:29:31;2.10;;;0.70;;
19107;SDS011;9686;48.832;9.126;2023-12-20T13:31:56;1.27;;;0.83;;
19107;SDS011;9686;48.832;9.126;2023-12-20T13:34:22;5.97;;;0.80;;
19107;SDS011;9686;48.832;9.126;2023-12-20T13:36:48;0.70;;;0.70;;
19107;SDS011;9686;48.832;9.126;2023-12-20T13:39:15;0.67;;;0.67;;
19107;SDS011;9686;48.832;9.126;2023-12-20T13:41:41;0.70;;;0.70;;
19107;SDS011;9686;48.832;9.126;2023-12-20T13:44:07;3.40;;;0.80;;
19107;SDS011;9686;48.832;9.126;2023-12-20T13:46:32;0.70;;;0.70;;
19107;SDS011;9686;48.832;9.126;2023-12-20T13:48:57;0.60;;;0.60;;
19107;SDS011;9686;48.832;9.126;2023-12-20T13:51:22;2.43;;;0.73;;
19107;SDS011;9686;48.832;9.126;2023-12-20T13:53:48;2.17;;;1.30;;
19107;SDS011;9686;48.832;9.126;2023-12-20T13:56:14;7.23;;;0.77;;
19107;SDS011;9686;48.832;9.126;2023-12-20T13:58:39;2.73;;;0.83;;
19107;SDS011;9686;48.832;9.126;2023-12-20T14:01:06;1.27;;;0.63;;
19107;SDS011;9686;48.832;9.126;2023-12-20T14:03:32;5.20;;;1.53;;
19107;SDS011;9686;48.832;9.126;2023-12-20T14:05:57;3.83;;;2.20;;
19107;SDS011;9686;48.832;9.126;2023-12-20T14:08:22;5.40;;;1.63;;
19107;SDS011;9686;48.832;9.126;2023-12-20T14:10:47;0.50;;;0.50;;
19107;SDS011;9686;48.832;9.126;2023-12-20T14:13:13;0.30;;;0.30;;
19107;SDS011;9686;48.832;9.126;2023-12-20T14:15:39;0.70;;;0.70;;
19107;SDS011;9686;48.832;9.126;2023-12-20T14:18:04;0.63;;;0.63;;
19107;SDS011;9686;48.832;9.126;2023-12-20T14:20:33;1.33;;;1.13;;
19107;SDS011;9686;48.832;9.126;2023-12-20T14:23:00;0.80;;;0.80;;
19107;SDS011;9686;48.832;9.126;2023-12-20T14:25:26;0.80;;;0.80;;
19107;SDS011;9686;48.832;9.126;2023-12-20T14:27:51;0.97;;;0.67;;
19107;SDS011;9686;48.832;9.126;2023-12-20T14:30:16;1.60;;;0.97;;
19107;SDS011;9686;48.832;9.126;2023-12-20T14:32:42;1.27;;;0.97;;
19107;SDS011;9686;48.832;9.126;2023-12-20T14:35:07;0.80;;;0.80;;
19107;SDS011;9686;48.832;9.126;2023-12-20T14:37:33;1.77;;;0.73;;
19107;SDS011;9686;48.832;9.126;2023-12-20T14:40:06;1.50;;;1.00;;
19107;SDS011;9686;48.832;9.126;2023-12-20T14:42:35;2.93;;;1.07;;
19107;SDS011;9686;48.832;9.126;2023-12-20T14:45:00;0.73;;;0.60;;
19107;SDS011;9686;48.832;9.126;2023-12-20T14:47:26;1.67;;;0.60;;
19107;SDS011;9686;48.832;9.126;2023-12-20T14:49:51;1.40;;;0.80;;
19107;SDS011;9686;48.832;9.126;2023-12-20T14:52:19;4.57;;;1.07;;
19107;SDS011;9686;48.832;9.126;2023-12-20T14:54:45;0.80;;;0.80;;
19107;SDS011;9686;48.832;9.126;2023-12-20T14:57:10;1.10;;;0.90;;